Terminal Aerodrome Forecast
Issued by NWS

Home | Current Version | Previous Version | Text Only | Print | Product List | Glossary On
Versions: 1 2 3 4 5 6 7 8 9 10 11 12 13 14 15 16 17 18 19 20 21 22 23 24 25 26 27 28 29 30 31 32 33 34 35 36 37 38 39 40 41
000
FTUS44 KHGX 282320
TAFUTS
TAF
KUTS 282320Z 2900/2924 16010G20KT 6SM BR FEW035
     FM290300 16010G20KT P6SM BKN025 WS020/16040KT
     FM290900 16010G20KT 6SM BR SCT009 BKN015 WS020/16040KT
     FM291500 16012G22KT P6SM BKN020 WS020/17045KT
     FM292100 16013KT 6SM HZ VCSH BKN022=

USA.gov is the U.S. government's official web portal to all federal, state and local government web resources and services.